| Date | Time | Temp. (oF) | Dew Point (oF) | Rel. Hum. (%) | Press. (in.) | Wind Dir. | Wind Speed (mph) | Hourly Rainfall (in.) |
|
|---|---|---|---|---|---|---|---|---|---|
| 1 | 01/12 | 00:00 | 21 | 8 | 59 | 30.15 | WNW | 4 | 0.00 |
| 2 | 01/11 | 23:00 | 22 | 10 | 60 | 30.15 | WNW | 7 | 0.00 |
| 3 | 01/11 | 22:00 | 22 | 10 | 60 | 30.13 | WSW | 7 | 0.00 |
| 4 | 01/11 | 21:00 | 22 | 10 | 61 | 30.12 | W | 7 | 0.00 |
| 5 | 01/11 | 20:00 | 23 | 11 | 61 | 30.10 | WSW | 4 | 0.00 |
| 6 | 01/11 | 19:00 | 23 | 11 | 60 | 30.09 | WSW | 6 | 0.00 |
| 7 | 01/11 | 18:00 | 25 | 11 | 56 | 30.07 | W | 4 | 0.00 |
| 8 | 01/11 | 17:00 | 26 | 11 | 53 | 30.04 | WSW | 12 | 0.00 |
| 9 | 01/11 | 16:00 | 28 | 11 | 50 | 30.01 | S | 9 | 0.00 |
| 10 | 01/11 | 15:00 | 29 | 13 | 51 | 30.00 | W | 12 | 0.00 |
| 11 | 01/11 | 14:00 | 29 | 12 | 50 | 29.99 | WNW | 6 | 0.00 |
| 12 | 01/11 | 13:00 | 29 | 12 | 49 | 30.01 | SW | 9 | 0.00 |
| 13 | 01/11 | 12:00 | 28 | 11 | 49 | 30.03 | W | 13 | 0.00 |
| 14 | 01/11 | 11:00 | 27 | 11 | 52 | 30.06 | WNW | 12 | 0.00 |
| 15 | 01/11 | 10:00 | 25 | 10 | 54 | 30.07 | WSW | 13 | 0.00 |
| 16 | 01/11 | 09:00 | 23 | 10 | 57 | 30.05 | SSW | 5 | 0.00 |
| 17 | 01/11 | 08:00 | 20 | 9 | 62 | 30.03 | SSW | 5 | 0.00 |
| 18 | 01/11 | 07:00 | 20 | 8 | 60 | 30.01 | SSW | 4 | 0.00 |
| 19 | 01/11 | 06:00 | 21 | 8 | 57 | 29.98 | WNW | 13 | 0.00 |
| 20 | 01/11 | 05:00 | 22 | 8 | 55 | 29.95 | W | 10 | 0.00 |
| 21 | 01/11 | 04:00 | 23 | 7 | 52 | 29.93 | NW | 10 | 0.00 |
| 22 | 01/11 | 03:00 | 24 | 10 | 57 | 29.90 | WSW | 10 | 0.00 |
| 23 | 01/11 | 02:00 | 24 | 13 | 64 | 29.89 | W | 12 | 0.00 |
| 24 | 01/11 | 01:00 | 26 | 12 | 55 | 29.86 | W | 13 | 0.00 |